Аэропорт: Рощино. Тюмень

ICAO: USTR

METAR:
2019-11-21 01:30:00
USTR 210130Z 24005MPS CAVOK M18/M21 Q1037 R30/CLRD65 R03/CLRD65 NOSIG RMK QFE768/1024
METAR:
2019-11-21 00:40:00
TAF AMD USTR 210040Z 2100/2124 25005G12MPS 9999 DRSN BKN020 BECMG 2106/2108 30006G13MPS